Latest Weather Observations for Mandora

IDW60801

Issued at 9:35 pm WST Wednesday 22 October 2014 (issued every 30 minutes, with the page automatically refreshed every 10 minutes)

About weather observations | Map of weather stations | Latest weather observations for WA | Other Formats
Station Details ID: 004019 Name: MANDORA Lat: -19.74 Lon: 120.84 Height: 7.5 m
Data from the previous 72 hours. | See also: Recent months at Mandora
Date/Time
WST
Temp
°C
App
Temp
°C
Dew
Point
Rel
Hum
%
Delta-T
°C
Wind Press
QNH
hPa
Press
MSL
hPa
Rain
since 9 am
mm
Dir
 
Spd
km/h
Gust
km/h
Spd
kts
Gust
kts
22/09:30pm 27.2 - - - - N 13 20 7 11 1010.9 - 0.0
22/09:00pm 27.5 - - - - N 15 20 8 11 1010.8 1010.7 0.0
22/08:30pm 28.6 - - - - N 19 26 10 14 1010.6 - 0.0
22/08:00pm 28.1 - - - - N 22 30 12 16 1010.4 - 0.0
22/07:30pm 28.1 - - - - N 22 32 12 17 1010.3 - 0.0
22/07:00pm 28.1 - - - - N 24 32 13 17 1010.0 - 0.0
22/06:30pm 28.5 - - - - N 22 35 12 19 1009.5 - 0.0
22/06:00pm 31.2 - - - - N 17 26 9 14 1008.9 1008.8 0.0
22/05:30pm 34.6 - - - - N 19 22 10 12 1008.0 - 0.0
22/05:00pm 37.6 - - - - WNW 17 26 9 14 1007.1 - 0.0
22/04:30pm 38.8 - - - - WNW 22 35 12 19 1007.0 - 0.0
22/04:00pm 39.3 - - - - WNW 22 35 12 19 1007.0 - 0.0
22/03:30pm 40.2 - - - - WNW 26 35 14 19 1007.0 - 0.0
22/03:00pm 42.8 - - - - W 13 28 7 15 1007.0 1006.9 0.0
22/02:30pm 43.6 - - - - S 11 20 6 11 1007.2 - 0.0
22/02:00pm 42.9 - - - - NNE 9 17 5 9 1007.7 - 0.0
22/01:30pm 43.7 - - - - E 9 19 5 10 1008.1 - 0.0
22/01:00pm 43.1 - - - - SE 11 24 6 13 1008.7 - 0.0
22/12:30pm 43.3 - - - - S 19 32 10 17 1009.3 - 0.0
22/12:00pm 43.2 - - - - S 19 33 10 18 1009.8 1009.7 0.0
22/11:30am 41.9 - - - - S 26 44 14 24 1010.4 - 0.0
22/11:00am 41.3 - - - - S 22 43 12 23 1010.9 - 0.0
22/10:30am 40.9 - - - - S 24 37 13 20 1011.2 - 0.0
22/10:04am 39.8 - - - - S 28 46 15 25 1011.5 - 0.0
22/10:00am 39.7 - - - - S 30 46 16 25 1011.5 - 0.0
22/09:30am 39.3 - - - - SSE 30 44 16 24 1011.8 - 0.0
22/09:00am 38.6 - - - - S 28 43 15 23 1011.9 1011.8 0.0
22/08:30am 37.7 - - - - S 30 48 16 26 1011.8 - 0.0
22/08:00am 35.8 - - - - S 28 39 15 21 1011.6 - 0.0
22/07:30am 33.3 - - - - S 24 37 13 20 1011.4 - 0.0
22/07:00am 31.0 - - - - S 20 28 11 15 1011.3 - 0.0
22/06:30am 28.6 - - - - S 17 28 9 15 1010.9 - 0.0
22/06:00am 26.7 - - - - S 19 22 10 12 1010.5 1010.4 0.0
22/05:30am 25.5 - - - - S 15 20 8 11 1010.2 - 0.0
22/05:00am 26.8 - - - - S 17 24 9 13 1010.0 - 0.0
22/04:30am 27.1 - - - - S 19 22 10 12 1009.7 - 0.0
22/04:00am 26.2 - - - - S 17 20 9 11 1009.6 - 0.0
22/03:30am 25.9 - - - - S 17 20 9 11 1009.5 - 0.0
22/03:00am 26.0 - - - - S 15 19 8 10 1009.7 1009.6 0.0
22/02:30am 26.9 - - - - SSE 13 17 7 9 1009.7 - 0.0
22/02:00am 27.9 - - - - SSW 17 22 9 12 1009.2 - 0.0
22/01:30am 26.9 - - - - SSW 19 22 10 12 1009.5 - 0.0
22/01:00am 24.6 - - - - SSW 15 17 8 9 1010.1 - 0.0
22/12:30am 25.1 - - - - SW 13 17 7 9 1010.4 - 0.0
22/12:00am 24.5 - - - - SW 13 13 7 7 1010.9 1010.8 0.0
 
Date/Time
WST
Temp
°C
App
Temp
°C
Dew
Point
Rel
Hum
%
Delta-T
°C
Wind Press
QNH
hPa
Press
MSL
hPa
Rain
since 9 am
mm
Dir
 
Spd
km/h
Gust
km/h
Spd
kts
Gust
kts
21/11:30pm 25.4 - - - - S 9 13 5 7 1011.3 - 0.0
21/11:00pm 26.5 - - - - SW 13 15 7 8 1011.6 - 0.0
21/10:30pm 26.6 - - - - WSW 15 19 8 10 1011.9 - 0.0
21/10:00pm 26.9 - - - - WSW 17 20 9 11 1012.5 - 0.0
21/09:30pm 26.9 - - - - WSW 17 20 9 11 1012.6 - 0.0
21/09:00pm 26.4 - - - - SW 7 9 4 5 1012.5 1012.4 0.0
21/08:30pm 27.1 - - - - WSW 15 17 8 9 1012.3 - 0.0
21/08:00pm 26.4 - - - - W 11 13 6 7 1012.3 - 0.0
21/07:30pm 27.2 - - - - W 11 13 6 7 1012.0 - 0.0
21/07:00pm 28.7 - - - - W 13 19 7 10 1011.7 - 0.0
21/06:30pm 30.1 - - - - W 15 19 8 10 1011.3 - 0.0
21/06:00pm 31.9 - - - - W 17 24 9 13 1011.0 1010.9 0.0
21/05:30pm 34.1 - - - - W 20 30 11 16 1010.6 - 0.0
21/05:00pm 36.4 - - - - W 22 32 12 17 1010.2 - 0.0
21/04:30pm 38.0 - - - - W 22 32 12 17 1009.9 - 0.0
21/04:00pm 38.9 - - - - W 24 33 13 18 1009.8 - 0.0
21/03:30pm 39.3 - - - - WNW 24 32 13 17 1009.9 - 0.0
21/03:00pm 39.5 - - - - WNW 22 33 12 18 1010.0 1009.9 0.0
21/02:30pm 40.6 - - - - WNW 24 32 13 17 1010.0 - 0.0
21/02:00pm 41.9 - - - - W 24 35 13 19 1010.1 - 0.0
21/01:30pm 41.4 - - - - WSW 15 24 8 13 1010.5 - 0.0
21/01:00pm 42.0 - - - - SW 17 37 9 20 1011.1 - 0.0
21/12:30pm 40.8 - - - - SSW 13 20 7 11 1011.8 - 0.0
21/12:00pm 40.9 - - - - WNW 15 26 8 14 1012.4 1012.3 0.0
21/11:30am 40.8 - - - - S 13 24 7 13 1012.8 - 0.0
21/11:00am 40.9 - - - - WSW 15 28 8 15 1013.4 - 0.0
21/10:30am 40.7 - - - - SSW 20 32 11 17 1013.8 - 0.0
21/10:00am 40.0 - - - - S 13 35 7 19 1014.1 - 0.0
21/09:30am 39.4 - - - - S 24 37 13 20 1014.5 - 0.0
21/09:00am 37.8 - - - - S 22 32 12 17 1014.6 1014.5 0.0
21/08:30am 36.5 - - - - S 19 28 10 15 1015.1 - 0.0
21/08:00am 34.3 - - - - S 17 30 9 16 1014.9 - 0.0
21/07:51am 33.8 - - - - S 17 22 9 12 1014.8 - 0.0
21/07:30am 28.6 - - - - SW 6 9 3 5 1014.8 - 0.0
21/07:00am 24.2 - - - - CALM 0 0 0 0 1014.7 - 0.0
21/06:30am 20.3 - - - - NW 4 7 2 4 1014.4 - 0.0
21/06:00am 17.7 - - - - NNW 7 9 4 5 1014.0 1013.9 0.0
21/05:30am 17.8 - - - - N 4 9 2 5 1013.6 - 0.0
21/05:00am 19.9 - - - - ENE 7 15 4 8 1013.2 - 0.0
21/04:30am 21.3 - - - - SSW 13 20 7 11 1012.8 - 0.0
21/04:00am 22.1 - - - - SW 17 20 9 11 1012.6 - 0.0
21/03:30am 22.6 - - - - SW 17 22 9 12 1012.7 - 0.0
21/03:00am 22.9 - - - - SW 19 26 10 14 1012.6 1012.5 0.0
21/02:30am 22.7 - - - - SW 19 24 10 13 1012.6 - 0.0
21/02:00am 23.2 - - - - SW 17 24 9 13 1012.6 - 0.0
21/01:30am 23.8 - - - - SW 20 32 11 17 1012.7 - 0.0
21/01:00am 23.9 - - - - SW 20 26 11 14 1012.9 - 0.0
21/12:30am 23.8 - - - - SW 19 26 10 14 1013.1 - 0.0
21/12:00am 23.9 - - - - SW 19 28 10 15 1013.4 1013.3 0.0
 
Date/Time
WST
Temp
°C
App
Temp
°C
Dew
Point
Rel
Hum
%
Delta-T
°C
Wind Press
QNH
hPa
Press
MSL
hPa
Rain
since 9 am
mm
Dir
 
Spd
km/h
Gust
km/h
Spd
kts
Gust
kts
20/11:30pm 24.1 - - - - WSW 15 20 8 11 1013.8 - 0.0
20/11:00pm 23.6 - - - - WSW 17 22 9 12 1014.1 - 0.0
20/10:30pm 22.8 - - - - WSW 13 19 7 10 1014.3 - 0.0
20/10:00pm 22.9 - - - - WSW 13 17 7 9 1014.4 - 0.0
20/09:30pm 22.9 - - - - W 9 13 5 7 1014.4 - 0.0
20/09:00pm 23.9 - - - - W 13 17 7 9 1014.2 1014.1 0.0
20/08:30pm 24.5 - - - - W 13 15 7 8 1014.1 - 0.0
20/08:00pm 24.8 - - - - W 11 15 6 8 1013.8 - 0.0
20/07:30pm 25.4 - - - - W 13 19 7 10 1013.5 - 0.0
20/07:00pm 25.7 - - - - W 15 20 8 11 1013.0 - 0.0
20/06:30pm 26.3 - - - - W 15 22 8 12 1012.7 - 0.0
20/06:00pm 26.9 - - - - WNW 17 26 9 14 1012.2 1012.1 0.0
20/05:30pm 28.5 - - - - WNW 19 28 10 15 1011.9 - 0.0
20/05:00pm 29.8 - - - - WNW 20 32 11 17 1011.6 - 0.0
20/04:30pm 31.1 - - - - WNW 20 30 11 16 1011.4 - 0.0
20/04:00pm 32.6 - - - - WNW 19 30 10 16 1011.1 - 0.0
20/03:30pm 34.3 - - - - WNW 22 32 12 17 1011.0 - 0.0
20/03:00pm 34.1 - - - - WNW 24 32 13 17 1011.1 1011.0 0.0
20/02:30pm 34.5 - - - - WNW 22 32 12 17 1011.1 - 0.0
20/02:00pm 34.8 - - - - NW 20 30 11 16 1011.5 - 0.0
20/01:30pm 34.6 - - - - NW 24 32 13 17 1011.9 - 0.0
20/01:00pm 35.3 - - - - NW 20 28 11 15 1012.2 - 0.0
20/12:30pm 34.5 - - - - NW 19 30 10 16 1012.6 - 0.0
20/12:00pm 34.1 - - - - NW 20 28 11 15 1013.1 1013.0 0.0
20/11:30am 34.2 - - - - NW 20 28 11 15 1013.4 - 0.0
20/11:00am 34.3 - - - - NW 19 26 10 14 1013.7 - 0.0
20/10:30am 35.1 - - - - WNW 17 26 9 14 1014.1 - 0.0
20/10:00am 34.9 - - - - SW 13 20 7 11 1014.5 - 0.0
20/09:30am 33.4 - - - - WSW 13 20 7 11 1015.0 - 0.0
20/09:00am 31.7 - - - - WSW 13 20 7 11 1015.1 1015.0 0.0
20/08:30am 30.0 - - - - WSW 15 22 8 12 1015.2 - 0.0
20/08:00am 27.6 - - - - WSW 17 22 9 12 1015.2 - 0.0
20/07:30am 26.0 - - - - WSW 20 28 11 15 1015.1 - 0.0
20/07:00am 24.1 - - - - WSW 19 28 10 15 1015.0 - 0.0
20/06:30am 22.3 - - - - WSW 15 22 8 12 1014.6 - 0.0
20/06:00am 20.7 - - - - SW 13 17 7 9 1014.2 1014.1 0.0
20/05:30am 20.3 - - - - SW 13 17 7 9 1013.8 - 0.0
20/05:00am 20.2 - - - - SW 13 19 7 10 1013.4 - 0.0
20/04:30am 20.1 - - - - SW 13 17 7 9 1013.1 - 0.0
20/04:00am 19.7 - - - - SW 11 13 6 7 1013.0 - 0.0
20/03:30am 19.4 - - - - SW 9 11 5 6 1012.7 - 0.0
20/03:00am 19.9 - - - - SW 9 11 5 6 1012.6 1012.5 0.0
20/02:30am 20.4 - - - - SW 11 13 6 7 1012.6 - 0.0
20/02:00am 20.3 - - - - SW 11 15 6 8 1012.5 - 0.0
20/01:30am 19.7 - - - - SW 11 13 6 7 1012.6 - 0.0
20/01:00am 19.9 - - - - SW 9 11 5 6 1012.9 - 0.0
20/12:30am 20.4 - - - - WSW 11 13 6 7 1013.1 - 0.0
20/12:00am 20.8 - - - - W 11 13 6 7 1013.4 1013.3 0.0
 
Date/Time
WST
Temp
°C
App
Temp
°C
Dew
Point
Rel
Hum
%
Delta-T
°C
Wind Press
QNH
hPa
Press
MSL
hPa
Rain
since 9 am
mm
Dir
 
Spd
km/h
Gust
km/h
Spd
kts
Gust
kts
19/11:30pm 20.9 - - - - W 11 13 6 7 1013.7 - 0.0
19/11:00pm 21.0 - - - - WNW 11 13 6 7 1013.8 - 0.0
19/10:30pm 21.3 - - - - WNW 9 11 5 6 1014.1 - 0.0
19/10:00pm 20.9 - - - - WNW 9 11 5 6 1014.2 - 0.0

Other Formats:

Comma delimited format used in spreadsheet applications
http://www.bom.gov.au/fwo/IDW60801/IDW60801.94200.axf

JavaScript Object Notation format (JSON) in row-major order
http://www.bom.gov.au/fwo/IDW60801/IDW60801.94200.json